Time;durP1;ratioP1;P1;durP2;ratioP2;P2;SDS_P1;SDS_P2;PMS_P1;PMS_P2;Temp;Humidity;BMP_temperature;BMP_pressure;BME280_temperature;BME280_humidity;BME280_pressure;Samples;Min_cycle;Max_cycle;Signal;HPM_P1;HPM_P2
2021/12/29 00:01:25;;;;;;;;;;;6.30;99.90;;;;;;5135496;27;19932;-74
2021/12/29 00:03:51;;;;;;;;;;;6.30;99.90;;;;;;5135150;27;19911;-76
2021/12/29 00:06:16;;;;;;;;;;;6.30;99.90;;;;;;5135214;27;20016;-74
2021/12/29 00:08:42;;;;;;;;;;;6.30;99.90;;;;;;5135689;27;19908;-74
2021/12/29 00:11:08;;;;;;;;;;;6.30;99.90;;;;;;5134603;27;20269;-75
2021/12/29 00:13:33;;;;;;;;;;;6.30;99.90;;;;;;5135417;27;19912;-75
2021/12/29 00:16:00;;;;;;;;;;;6.30;99.90;;;;;;5134567;27;20310;-74
2021/12/29 00:18:34;;;;;;;;;;;6.30;99.90;;;;;;5135163;27;19998;-73
2021/12/29 00:21:00;;;;;;;;;;;6.30;99.90;;;;;;5134377;27;19959;-75
2021/12/29 00:23:26;;;;;;;;;;;6.30;99.90;;;;;;5135086;27;19914;-74
2021/12/29 00:25:52;;;;;;;;;;;6.30;99.90;;;;;;5134989;27;19907;-74
2021/12/29 00:28:18;;;;;;;;;;;6.30;99.90;;;;;;5134633;27;19954;-74
2021/12/29 00:30:44;;;;;;;;;;;6.30;99.90;;;;;;5134887;27;19946;-74
2021/12/29 00:33:10;;;;;;;;;;;6.30;99.90;;;;;;5133877;27;20351;-74
2021/12/29 00:35:38;;;;;;;;;;;6.30;99.90;;;;;;5134777;27;19933;-74
2021/12/29 00:38:06;;;;;;;;;;;6.20;99.90;;;;;;5133943;27;19951;-74
2021/12/29 00:40:32;;;;;;;;;;;6.30;99.90;;;;;;5134956;27;19911;-74
2021/12/29 00:42:58;;;;;;;;;;;6.30;99.90;;;;;;5132717;27;20390;-75
2021/12/29 00:45:23;;;;;;;;;;;6.30;99.90;;;;;;5134810;27;20010;-74
2021/12/29 00:47:50;;;;;;;;;;;6.30;99.90;;;;;;5134591;27;19907;-74
2021/12/29 00:50:17;;;;;;;;;;;6.20;99.90;;;;;;5134166;27;19998;-74
2021/12/29 00:52:46;;;;;;;;;;;6.20;99.90;;;;;;5134643;27;19922;-74
2021/12/29 00:55:13;;;;;;;;;;;6.20;99.90;;;;;;5132896;27;20496;-74
2021/12/29 00:57:39;;;;;;;;;;;6.30;99.90;;;;;;5135056;27;19915;-74
2021/12/29 01:00:09;;;;;;;;;;;6.30;99.90;;;;;;5133748;27;19907;-74
2021/12/29 01:02:34;;;;;;;;;;;6.40;99.90;;;;;;5134654;27;19908;-74
2021/12/29 01:05:00;;;;;;;;;;;6.40;99.90;;;;;;5133725;27;20370;-74
2021/12/29 01:07:26;;;;;;;;;;;6.40;99.90;;;;;;5134488;27;19907;-74
2021/12/29 01:09:52;;;;;;;;;;;6.40;99.90;;;;;;5134369;27;19911;-74
2021/12/29 01:12:18;;;;;;;;;;;6.40;99.90;;;;;;5133437;27;20301;-74
2021/12/29 01:14:52;;;;;;;;;;;6.40;99.90;;;;;;5134263;27;20368;-74
2021/12/29 01:17:18;;;;;;;;;;;6.50;99.90;;;;;;5133381;27;19923;-74
2021/12/29 01:19:43;;;;;;;;;;;6.50;99.90;;;;;;5133893;27;20364;-74
2021/12/29 01:22:10;;;;;;;;;;;6.40;99.90;;;;;;5133452;27;19908;-74
2021/12/29 01:24:36;;;;;;;;;;;6.50;99.90;;;;;;5136253;27;19933;-75
2021/12/29 01:27:02;;;;;;;;;;;6.50;99.90;;;;;;5154192;27;19911;-74
2021/12/29 01:29:28;;;;;;;;;;;6.50;99.90;;;;;;5155077;27;19954;-73
2021/12/29 01:31:54;;;;;;;;;;;6.40;99.90;;;;;;5155003;27;20240;-74
2021/12/29 01:34:20;;;;;;;;;;;6.50;99.90;;;;;;5154957;27;19915;-73
2021/12/29 01:36:46;;;;;;;;;;;6.50;99.90;;;;;;5155156;27;20348;-73
2021/12/29 01:39:13;;;;;;;;;;;6.50;99.90;;;;;;5154293;27;20359;-73
2021/12/29 01:41:39;;;;;;;;;;;6.50;99.90;;;;;;5154820;27;19907;-73
2021/12/29 01:44:05;;;;;;;;;;;6.50;99.90;;;;;;5154456;27;19932;-73
2021/12/29 01:46:31;;;;;;;;;;;6.50;99.90;;;;;;5135810;27;20351;-73
2021/12/29 01:48:56;;;;;;;;;;;6.50;99.90;;;;;;5154017;27;20275;-73
2021/12/29 01:51:22;;;;;;;;;;;6.60;99.90;;;;;;5154752;27;19963;-73
2021/12/29 01:54:01;;;;;;;;;;;6.60;99.90;;;;;;5154749;27;19923;-73
2021/12/29 01:56:27;;;;;;;;;;;6.70;99.90;;;;;;5155163;27;19918;-73
2021/12/29 01:58:53;;;;;;;;;;;6.60;99.90;;;;;;5154989;27;20293;-73
2021/12/29 02:01:19;;;;;;;;;;;6.70;99.90;;;;;;5153733;27;19907;-73
2021/12/29 02:03:45;;;;;;;;;;;6.70;99.90;;;;;;5155125;27;19956;-73
2021/12/29 02:06:11;;;;;;;;;;;6.80;99.90;;;;;;5153585;27;19913;-73
2021/12/29 02:08:36;;;;;;;;;;;6.70;99.90;;;;;;5154906;27;20005;-73
2021/12/29 02:11:04;;;;;;;;;;;6.70;99.90;;;;;;5153752;27;20363;-74
2021/12/29 02:13:30;;;;;;;;;;;6.70;99.90;;;;;;5154077;27;20003;-74
2021/12/29 02:15:55;;;;;;;;;;;6.80;99.90;;;;;;5154458;27;19980;-73
2021/12/29 02:18:21;;;;;;;;;;;6.70;99.90;;;;;;5135338;27;20016;-73
2021/12/29 02:20:49;;;;;;;;;;;6.80;99.90;;;;;;5154644;27;19918;-75
2021/12/29 02:23:25;;;;;;;;;;;6.80;99.90;;;;;;5153167;27;19907;-73
2021/12/29 02:25:52;;;;;;;;;;;6.80;99.90;;;;;;5154624;27;19907;-73
2021/12/29 02:28:22;;;;;;;;;;;6.80;99.90;;;;;;5153578;27;20530;-73
2021/12/29 02:30:48;;;;;;;;;;;6.80;99.90;;;;;;5154329;27;19918;-74
2021/12/29 02:33:14;;;;;;;;;;;6.80;99.90;;;;;;5153479;27;19915;-74
2021/12/29 02:35:41;;;;;;;;;;;6.80;99.90;;;;;;5154125;27;20040;-74
2021/12/29 02:38:11;;;;;;;;;;;6.90;99.90;;;;;;5153513;27;19911;-74
2021/12/29 02:40:37;;;;;;;;;;;6.90;99.90;;;;;;5154108;27;19907;-73
2021/12/29 02:43:03;;;;;;;;;;;7.00;99.90;;;;;;5153692;27;19907;-75
2021/12/29 02:45:33;;;;;;;;;;;7.00;99.90;;;;;;5154102;27;19907;-74
2021/12/29 02:47:58;;;;;;;;;;;7.10;99.90;;;;;;5154056;27;19914;-75
2021/12/29 02:50:24;;;;;;;;;;;7.10;99.90;;;;;;5153294;27;19993;-75
2021/12/29 02:52:51;;;;;;;;;;;7.10;99.90;;;;;;5135475;27;19915;-75
2021/12/29 02:55:16;;;;;;;;;;;7.10;99.90;;;;;;5153476;27;19919;-75
2021/12/29 02:57:42;;;;;;;;;;;7.20;99.90;;;;;;5154114;27;19915;-75
2021/12/29 03:00:11;;;;;;;;;;;7.20;99.90;;;;;;5156015;27;19911;-75
2021/12/29 03:02:36;;;;;;;;;;;7.20;99.90;;;;;;5158460;27;19907;-74
2021/12/29 03:05:02;;;;;;;;;;;7.20;99.90;;;;;;5157709;27;20248;-75
2021/12/29 03:07:27;;;;;;;;;;;7.30;99.90;;;;;;5157934;27;19911;-75
2021/12/29 03:09:53;;;;;;;;;;;7.40;99.90;;;;;;5157931;27;19907;-74
2021/12/29 03:12:18;;;;;;;;;;;7.50;99.90;;;;;;5158762;27;19915;-74
2021/12/29 03:14:55;;;;;;;;;;;7.50;99.90;;;;;;5166654;27;19914;-74
2021/12/29 03:17:21;;;;;;;;;;;7.60;99.90;;;;;;5163837;27;20086;-75
2021/12/29 03:19:47;;;;;;;;;;;7.60;99.90;;;;;;5158126;27;19919;-75
2021/12/29 03:22:13;;;;;;;;;;;7.70;99.90;;;;;;5157636;27;19952;-76
2021/12/29 03:24:38;;;;;;;;;;;7.70;99.90;;;;;;5157951;27;19907;-77
2021/12/29 03:27:04;;;;;;;;;;;7.80;99.90;;;;;;5157305;27;19943;-77
2021/12/29 03:29:31;;;;;;;;;;;7.80;99.90;;;;;;5157437;27;19964;-77
2021/12/29 03:31:59;;;;;;;;;;;7.80;99.90;;;;;;5139375;27;19915;-78
2021/12/29 03:34:24;;;;;;;;;;;7.80;99.90;;;;;;5156913;27;20176;-78
2021/12/29 03:36:50;;;;;;;;;;;7.90;99.90;;;;;;5157563;27;19998;-81
2021/12/29 03:39:17;;;;;;;;;;;7.90;99.90;;;;;;5157190;27;19907;-80
2021/12/29 03:41:42;;;;;;;;;;;7.90;99.90;;;;;;5157482;27;19907;-80
2021/12/29 03:44:08;;;;;;;;;;;7.90;99.90;;;;;;5156160;27;19914;-78
2021/12/29 03:46:36;;;;;;;;;;;7.90;99.90;;;;;;5157119;27;19914;-79
2021/12/29 03:49:01;;;;;;;;;;;7.90;99.90;;;;;;5157505;27;20275;-81
2021/12/29 03:51:27;;;;;;;;;;;7.90;99.90;;;;;;5156594;27;19975;-80
2021/12/29 03:53:53;;;;;;;;;;;7.90;99.90;;;;;;5157038;27;19926;-82
2021/12/29 03:56:18;;;;;;;;;;;7.90;99.90;;;;;;5156534;27;20299;-81
2021/12/29 03:58:44;;;;;;;;;;;8.00;99.90;;;;;;5157181;27;19907;-79
2021/12/29 04:01:11;;;;;;;;;;;8.00;99.90;;;;;;5156331;27;19907;-82
2021/12/29 04:03:36;;;;;;;;;;;8.10;99.90;;;;;;5157195;27;19914;-83
2021/12/29 04:06:02;;;;;;;;;;;8.10;99.90;;;;;;5156859;27;20002;-81
2021/12/29 04:08:28;;;;;;;;;;;8.20;99.90;;;;;;5156389;27;19951;-79
2021/12/29 04:10:54;;;;;;;;;;;8.20;99.90;;;;;;5156407;27;20002;-78
2021/12/29 04:13:20;;;;;;;;;;;8.20;99.90;;;;;;5156212;27;19997;-77
2021/12/29 04:15:45;;;;;;;;;;;8.30;99.90;;;;;;5156809;27;19907;-77
2021/12/29 04:18:26;;;;;;;;;;;8.40;99.90;;;;;;5156080;27;19907;-77
2021/12/29 04:20:57;;;;;;;;;;;8.40;99.90;;;;;;5157031;27;19959;-76
2021/12/29 04:23:25;;;;;;;;;;;8.40;99.90;;;;;;5155784;27;19907;-76
2021/12/29 04:25:53;;;;;;;;;;;8.40;99.90;;;;;;5156754;27;19907;-78
2021/12/29 04:28:23;;;;;;;;;;;8.40;99.90;;;;;;5155832;27;19998;-79
2021/12/29 04:31:11;;;;;;;;;;;8.40;99.90;;;;;;5156554;27;19917;-85
2021/12/29 04:33:38;;;;;;;;;;;8.40;99.90;;;;;;5138080;27;19919;-84
2021/12/29 04:36:04;;;;;;;;;;;8.50;99.90;;;;;;5137698;27;19907;-83
2021/12/29 04:38:30;;;;;;;;;;;8.40;99.90;;;;;;5155712;27;20134;-82
2021/12/29 04:40:56;;;;;;;;;;;8.50;99.90;;;;;;5137659;27;19986;-83
2021/12/29 04:43:22;;;;;;;;;;;8.60;99.90;;;;;;5155592;27;19908;-84
2021/12/29 04:45:48;;;;;;;;;;;8.60;99.90;;;;;;5156000;27;19911;-81
2021/12/29 04:48:15;;;;;;;;;;;8.70;99.90;;;;;;5136737;27;19907;-79
2021/12/29 04:50:41;;;;;;;;;;;8.60;99.90;;;;;;5137755;27;19958;-76
2021/12/29 04:53:08;;;;;;;;;;;8.60;99.90;;;;;;5155717;27;19923;-76
2021/12/29 04:55:34;;;;;;;;;;;8.60;99.90;;;;;;5155697;27;19914;-74
2021/12/29 04:57:59;;;;;;;;;;;8.60;99.90;;;;;;5155797;27;20009;-74
2021/12/29 05:00:28;;;;;;;;;;;8.60;99.90;;;;;;5155503;27;19959;-74
2021/12/29 05:02:54;;;;;;;;;;;8.70;99.90;;;;;;5156046;27;19995;-74
2021/12/29 05:10:43;;;;;;;;;;;8.70;99.90;;;;;;5155615;27;20578;-74
2021/12/29 05:13:08;;;;;;;;;;;8.70;99.90;;;;;;5155674;27;19915;-76
2021/12/29 05:15:34;;;;;;;;;;;8.70;99.90;;;;;;5155135;27;19918;-79
2021/12/29 05:18:01;;;;;;;;;;;8.70;99.90;;;;;;5155783;27;20351;-80
2021/12/29 05:20:28;;;;;;;;;;;8.70;99.90;;;;;;5154903;27;19913;-77
2021/12/29 05:22:54;;;;;;;;;;;8.70;99.90;;;;;;5154503;27;19937;-75
2021/12/29 05:25:20;;;;;;;;;;;8.70;99.90;;;;;;5154757;27;19914;-75
2021/12/29 05:27:46;;;;;;;;;;;8.80;99.90;;;;;;5155491;27;20352;-76
2021/12/29 05:30:11;;;;;;;;;;;8.80;99.90;;;;;;5154905;27;20256;-76
2021/12/29 05:32:37;;;;;;;;;;;8.80;99.90;;;;;;5154756;27;20430;-75
2021/12/29 05:35:03;;;;;;;;;;;8.90;99.90;;;;;;5155377;27;19934;-74
2021/12/29 05:37:29;;;;;;;;;;;9.00;99.90;;;;;;5154490;27;19907;-74
2021/12/29 05:39:54;;;;;;;;;;;9.20;99.90;;;;;;5136652;27;19991;-74
2021/12/29 05:42:20;;;;;;;;;;;9.20;99.90;;;;;;5154380;27;19907;-74
2021/12/29 05:44:45;;;;;;;;;;;9.20;99.90;;;;;;5159314;27;19907;-73
2021/12/29 05:47:11;;;;;;;;;;;9.20;99.90;;;;;;5162332;27;20317;-75
2021/12/29 05:49:36;;;;;;;;;;;9.20;99.90;;;;;;5137950;27;19944;-74
2021/12/29 05:52:02;;;;;;;;;;;9.20;99.90;;;;;;5154725;27;19911;-74
2021/12/29 05:54:28;;;;;;;;;;;9.30;99.90;;;;;;5154138;27;20371;-74
2021/12/29 05:56:54;;;;;;;;;;;9.20;99.90;;;;;;5154899;27;20213;-74
2021/12/29 05:59:20;;;;;;;;;;;9.20;99.90;;;;;;5153872;27;19936;-74
2021/12/29 06:01:46;;;;;;;;;;;9.30;99.90;;;;;;5154715;27;19907;-74
2021/12/29 06:04:11;;;;;;;;;;;9.30;99.90;;;;;;5154848;27;19907;-73
2021/12/29 06:06:37;;;;;;;;;;;9.30;99.90;;;;;;5153704;27;19955;-74
2021/12/29 06:09:03;;;;;;;;;;;9.30;99.90;;;;;;5155085;27;20276;-74
2021/12/29 06:11:29;;;;;;;;;;;9.30;99.90;;;;;;5153466;27;20283;-74
2021/12/29 06:13:54;;;;;;;;;;;9.30;99.90;;;;;;5154623;27;19907;-74
2021/12/29 06:16:20;;;;;;;;;;;9.40;99.90;;;;;;5153673;27;19907;-75
2021/12/29 06:18:45;;;;;;;;;;;9.40;99.90;;;;;;5153982;27;19963;-74
2021/12/29 06:21:16;;;;;;;;;;;9.40;99.90;;;;;;5154355;27;19914;-74
2021/12/29 06:23:46;;;;;;;;;;;9.50;99.90;;;;;;5154285;27;19908;-74
2021/12/29 06:26:11;;;;;;;;;;;9.50;99.90;;;;;;5154377;27;20011;-74
2021/12/29 06:28:37;;;;;;;;;;;9.50;99.90;;;;;;5153439;27;20486;-74
2021/12/29 06:31:03;;;;;;;;;;;9.50;99.90;;;;;;5154744;27;19907;-74
2021/12/29 06:33:28;;;;;;;;;;;9.50;99.90;;;;;;5153086;27;19952;-74
2021/12/29 06:35:54;;;;;;;;;;;9.50;99.90;;;;;;5154463;27;19914;-74
2021/12/29 06:38:19;;;;;;;;;;;9.50;99.90;;;;;;5153307;27;20274;-74
2021/12/29 06:40:45;;;;;;;;;;;9.60;99.90;;;;;;5154294;27;19907;-74
2021/12/29 06:43:11;;;;;;;;;;;9.50;99.90;;;;;;5153989;27;19913;-73
2021/12/29 06:45:36;;;;;;;;;;;9.60;99.90;;;;;;5153366;27;20477;-74
2021/12/29 06:48:02;;;;;;;;;;;9.60;99.90;;;;;;5153998;27;19914;-74
2021/12/29 06:50:28;;;;;;;;;;;9.60;99.90;;;;;;5153408;27;19918;-74
2021/12/29 06:52:54;;;;;;;;;;;9.60;99.90;;;;;;5154078;27;19922;-74
2021/12/29 06:55:20;;;;;;;;;;;9.60;99.90;;;;;;5152686;27;20006;-75
2021/12/29 06:57:45;;;;;;;;;;;9.60;99.90;;;;;;5153906;27;19990;-73
2021/12/29 07:00:11;;;;;;;;;;;9.70;99.90;;;;;;5154154;27;20297;-74
2021/12/29 07:02:37;;;;;;;;;;;9.70;99.90;;;;;;5153054;27;19907;-74
2021/12/29 07:05:02;;;;;;;;;;;9.70;99.90;;;;;;5154043;27;19908;-74
2021/12/29 07:07:28;;;;;;;;;;;9.80;99.90;;;;;;5153217;27;20036;-74
2021/12/29 07:09:53;;;;;;;;;;;9.70;99.90;;;;;;5154255;27;19907;-73
2021/12/29 07:12:19;;;;;;;;;;;9.70;99.90;;;;;;5153000;27;20009;-74
2021/12/29 07:14:45;;;;;;;;;;;9.70;99.90;;;;;;5153468;27;19914;-74
2021/12/29 07:17:11;;;;;;;;;;;9.80;99.90;;;;;;5153741;27;19907;-73
2021/12/29 07:19:36;;;;;;;;;;;9.80;99.90;;;;;;5153019;27;20018;-73
2021/12/29 07:22:03;;;;;;;;;;;10.00;99.90;;;;;;5153768;27;19907;-73
2021/12/29 07:24:30;;;;;;;;;;;10.30;99.90;;;;;;5152874;27;19908;-73
2021/12/29 07:26:55;;;;;;;;;;;10.70;99.90;;;;;;5153872;27;19914;-73
2021/12/29 07:29:21;;;;;;;;;;;11.10;99.90;;;;;;5153269;27;20281;-74
2021/12/29 07:31:46;;;;;;;;;;;11.70;99.90;;;;;;5153742;27;19915;-73
2021/12/29 07:34:12;;;;;;;;;;;11.90;99.90;;;;;;5153614;27;20422;-73
2021/12/29 07:36:38;;;;;;;;;;;12.10;99.90;;;;;;5134124;27;20706;-73
2021/12/29 07:39:04;;;;;;;;;;;12.20;99.90;;;;;;5153708;27;19911;-73
2021/12/29 07:41:30;;;;;;;;;;;12.20;99.90;;;;;;5152919;27;19914;-74
2021/12/29 07:43:56;;;;;;;;;;;12.30;99.90;;;;;;5153570;27;19907;-73
2021/12/29 07:46:22;;;;;;;;;;;12.40;99.90;;;;;;5156154;27;19914;-75
2021/12/29 07:48:48;;;;;;;;;;;12.40;99.90;;;;;;5138784;27;20256;-73
2021/12/29 07:51:15;;;;;;;;;;;12.50;99.90;;;;;;5138738;27;19912;-74
2021/12/29 07:53:40;;;;;;;;;;;12.40;99.90;;;;;;5156103;27;19922;-74
2021/12/29 07:56:06;;;;;;;;;;;12.50;99.90;;;;;;5157267;27;20241;-73
2021/12/29 07:58:33;;;;;;;;;;;12.60;99.90;;;;;;5156469;27;20352;-74
2021/12/29 08:00:59;;;;;;;;;;;12.60;99.90;;;;;;5138269;27;19907;-73
2021/12/29 08:03:24;;;;;;;;;;;12.60;99.90;;;;;;5156477;27;19907;-75
2021/12/29 08:05:50;;;;;;;;;;;12.70;99.90;;;;;;5157131;27;19914;-74
2021/12/29 08:08:16;;;;;;;;;;;12.80;99.90;;;;;;5156491;27;19907;-73
2021/12/29 08:10:41;;;;;;;;;;;12.90;99.90;;;;;;5156167;27;19915;-73
2021/12/29 08:13:08;;;;;;;;;;;13.00;99.90;;;;;;5156782;27;19966;-73
2021/12/29 08:15:34;;;;;;;;;;;13.10;99.90;;;;;;5159372;27;19908;-74
2021/12/29 08:18:02;;;;;;;;;;;13.20;99.90;;;;;;5168054;27;19907;-74
2021/12/29 08:20:27;;;;;;;;;;;13.30;99.90;;;;;;5161818;27;19911;-75
2021/12/29 08:22:53;;;;;;;;;;;13.40;99.90;;;;;;5156374;27;20311;-74
2021/12/29 08:25:19;;;;;;;;;;;13.40;99.90;;;;;;5156488;27;20010;-75
2021/12/29 08:27:45;;;;;;;;;;;13.50;99.90;;;;;;5155577;27;19914;-75
2021/12/29 08:30:11;;;;;;;;;;;13.40;99.90;;;;;;5156442;27;19907;-75
2021/12/29 08:32:37;;;;;;;;;;;13.40;99.90;;;;;;5137089;27;19955;-74
2021/12/29 08:35:03;;;;;;;;;;;13.40;99.90;;;;;;5137922;27;19956;-74
2021/12/29 08:37:29;;;;;;;;;;;13.30;99.90;;;;;;5155618;27;19907;-75
2021/12/29 08:39:55;;;;;;;;;;;13.30;99.90;;;;;;5155959;27;19933;-75
2021/12/29 08:42:21;;;;;;;;;;;13.30;99.90;;;;;;5156394;27;19915;-75
2021/12/29 08:44:47;;;;;;;;;;;13.30;99.90;;;;;;5155473;27;20177;-74
2021/12/29 08:47:12;;;;;;;;;;;13.20;99.90;;;;;;5156335;27;19911;-75
2021/12/29 08:49:38;;;;;;;;;;;13.20;99.90;;;;;;5155290;27;20302;-75
2021/12/29 08:52:04;;;;;;;;;;;13.20;99.90;;;;;;5156234;27;20014;-75
2021/12/29 08:54:30;;;;;;;;;;;13.20;99.90;;;;;;5154849;27;19994;-75
2021/12/29 08:56:55;;;;;;;;;;;13.20;99.90;;;;;;5155963;27;20325;-74
2021/12/29 08:59:21;;;;;;;;;;;13.20;99.90;;;;;;5155835;27;19907;-74
2021/12/29 09:01:47;;;;;;;;;;;13.20;99.90;;;;;;5155622;27;19976;-74
2021/12/29 09:04:13;;;;;;;;;;;13.20;99.90;;;;;;5155670;27;20394;-73
2021/12/29 09:06:38;;;;;;;;;;;13.10;99.90;;;;;;5155101;27;20370;-74
2021/12/29 09:09:04;;;;;;;;;;;13.00;99.90;;;;;;5155729;27;19907;-74
2021/12/29 09:11:30;;;;;;;;;;;13.00;99.90;;;;;;5154886;27;19915;-76
2021/12/29 09:13:56;;;;;;;;;;;13.10;99.90;;;;;;5155501;27;19913;-74
2021/12/29 09:16:22;;;;;;;;;;;13.00;99.90;;;;;;5137113;27;19957;-74
2021/12/29 09:18:47;;;;;;;;;;;13.10;99.90;;;;;;5154816;27;20034;-75
2021/12/29 09:21:16;;;;;;;;;;;13.00;99.90;;;;;;5143745;27;19919;-75
2021/12/29 09:23:42;;;;;;;;;;;13.10;99.90;;;;;;5124172;27;19908;-72
2021/12/29 09:26:09;;;;;;;;;;;13.10;99.90;;;;;;5143789;27;19998;-73
2021/12/29 09:28:35;;;;;;;;;;;13.00;99.90;;;;;;5142237;27;20279;-75
2021/12/29 09:31:00;;;;;;;;;;;13.00;99.90;;;;;;5144651;27;19907;-75
2021/12/29 09:33:26;;;;;;;;;;;12.90;99.90;;;;;;5144548;27;20377;-75
2021/12/29 09:35:57;;;;;;;;;;;12.90;99.90;;;;;;5142397;27;19908;-76
2021/12/29 09:38:23;;;;;;;;;;;12.80;99.90;;;;;;5144451;27;20001;-75
2021/12/29 09:40:49;;;;;;;;;;;12.70;99.90;;;;;;5144264;27;19907;-75
2021/12/29 09:43:15;;;;;;;;;;;12.60;99.90;;;;;;5136954;27;19914;-75
2021/12/29 09:45:41;;;;;;;;;;;12.60;99.90;;;;;;5133078;27;20352;-74
2021/12/29 09:48:07;;;;;;;;;;;12.50;99.90;;;;;;5134046;27;20393;-75
2021/12/29 09:50:33;;;;;;;;;;;12.50;99.90;;;;;;5133192;27;19949;-75
2021/12/29 09:53:02;;;;;;;;;;;12.50;99.90;;;;;;5133353;27;20313;-75
2021/12/29 09:55:28;;;;;;;;;;;12.60;99.90;;;;;;5134740;27;19929;-75
2021/12/29 09:57:55;;;;;;;;;;;12.60;99.90;;;;;;5140489;27;19950;-73
2021/12/29 10:00:31;;;;;;;;;;;12.60;99.90;;;;;;5141935;27;19914;-73
2021/12/29 10:02:59;;;;;;;;;;;12.70;99.90;;;;;;5141104;27;19914;-74
2021/12/29 10:05:27;;;;;;;;;;;12.70;99.90;;;;;;5133909;27;19907;-74
2021/12/29 10:08:13;;;;;;;;;;;12.60;99.90;;;;;;5133369;27;20369;-75
2021/12/29 10:10:40;;;;;;;;;;;12.60;99.90;;;;;;5132640;27;19922;-74
2021/12/29 10:13:06;;;;;;;;;;;12.50;99.90;;;;;;5133465;27;20005;-75
2021/12/29 10:15:42;;;;;;;;;;;12.50;99.90;;;;;;5132263;27;19958;-76
2021/12/29 10:18:09;;;;;;;;;;;12.40;99.90;;;;;;5133284;27;19923;-74
2021/12/29 10:20:51;;;;;;;;;;;12.30;99.90;;;;;;5132469;27;19935;-75
2021/12/29 10:23:25;;;;;;;;;;;12.30;99.90;;;;;;5132987;27;20279;-75
2021/12/29 10:25:51;;;;;;;;;;;12.20;99.90;;;;;;5132428;27;19950;-75
2021/12/29 10:28:18;;;;;;;;;;;12.10;99.90;;;;;;5133016;27;19912;-74
2021/12/29 10:30:43;;;;;;;;;;;12.10;99.90;;;;;;5132634;27;19955;-75
2021/12/29 10:33:13;;;;;;;;;;;12.10;99.90;;;;;;5133076;27;19965;-75
2021/12/29 10:35:38;;;;;;;;;;;12.10;99.90;;;;;;5132658;27;19964;-76
2021/12/29 10:38:16;;;;;;;;;;;12.00;99.90;;;;;;5133441;27;19907;-76
2021/12/29 10:40:42;;;;;;;;;;;12.00;99.90;;;;;;5132699;27;20010;-75
2021/12/29 10:43:08;;;;;;;;;;;11.90;99.90;;;;;;5133291;27;19973;-74
2021/12/29 10:45:35;;;;;;;;;;;11.90;99.90;;;;;;5132337;27;19994;-75
2021/12/29 10:48:02;;;;;;;;;;;11.90;99.90;;;;;;5133066;27;19915;-75
2021/12/29 10:50:27;;;;;;;;;;;11.90;99.90;;;;;;5133114;28;20386;-74
2021/12/29 10:52:54;;;;;;;;;;;11.90;99.90;;;;;;5132261;28;20007;-74
2021/12/29 10:55:21;;;;;;;;;;;11.90;99.90;;;;;;5133456;27;19920;-74
2021/12/29 10:57:58;;;;;;;;;;;11.90;99.90;;;;;;5132467;28;19918;-74
2021/12/29 11:00:24;;;;;;;;;;;11.80;99.90;;;;;;5133154;28;19944;-75
2021/12/29 11:02:52;;;;;;;;;;;11.80;99.90;;;;;;5132285;28;19911;-75
2021/12/29 11:05:18;;;;;;;;;;;11.90;99.90;;;;;;5133358;28;19964;-74
2021/12/29 11:07:43;;;;;;;;;;;11.80;99.90;;;;;;5132574;28;19911;-75
2021/12/29 11:10:16;;;;;;;;;;;11.80;99.90;;;;;;5133693;28;19950;-74
2021/12/29 11:12:50;;;;;;;;;;;11.90;99.90;;;;;;5132175;28;19948;-75
2021/12/29 11:15:17;;;;;;;;;;;11.90;99.90;;;;;;5133163;28;19907;-74
2021/12/29 11:17:43;;;;;;;;;;;11.90;99.90;;;;;;5131875;28;20366;-75
2021/12/29 11:20:09;;;;;;;;;;;11.90;99.90;;;;;;5134187;27;19943;-75
2021/12/29 11:22:38;;;;;;;;;;;12.00;99.90;;;;;;5136660;27;19951;-76
2021/12/29 11:25:03;;;;;;;;;;;12.00;99.90;;;;;;5136899;27;19907;-73
2021/12/29 11:27:31;;;;;;;;;;;12.00;99.90;;;;;;5136849;27;19914;-74
2021/12/29 11:30:03;;;;;;;;;;;12.10;99.90;;;;;;5136282;27;20061;-74
2021/12/29 11:32:28;;;;;;;;;;;12.10;99.90;;;;;;5136834;27;19915;-75
2021/12/29 11:34:57;;;;;;;;;;;12.00;99.90;;;;;;5136401;27;19960;-74
2021/12/29 11:37:24;;;;;;;;;;;12.10;99.90;;;;;;5136962;27;19914;-75
2021/12/29 11:39:49;;;;;;;;;;;12.00;99.90;;;;;;5135935;27;19911;-75
2021/12/29 11:42:17;;;;;;;;;;;12.10;99.90;;;;;;5136193;27;19907;-75
2021/12/29 11:44:43;;;;;;;;;;;12.00;99.90;;;;;;5135815;27;20306;-75
2021/12/29 11:47:09;;;;;;;;;;;12.00;99.90;;;;;;5136542;27;19907;-75
2021/12/29 11:49:35;;;;;;;;;;;12.00;99.90;;;;;;5136446;27;19912;-76
2021/12/29 11:52:13;;;;;;;;;;;12.10;99.90;;;;;;5135900;27;19976;-75
2021/12/29 11:54:45;;;;;;;;;;;12.10;99.90;;;;;;5135191;27;19920;-76
2021/12/29 11:57:15;;;;;;;;;;;12.10;99.90;;;;;;5136531;27;19912;-73
2021/12/29 11:59:41;;;;;;;;;;;12.20;99.90;;;;;;5135501;27;19907;-75
2021/12/29 12:02:06;;;;;;;;;;;12.10;99.90;;;;;;5117910;27;20271;-74
2021/12/29 12:04:32;;;;;;;;;;;12.20;99.90;;;;;;5117505;27;19908;-75
2021/12/29 12:07:08;;;;;;;;;;;12.20;99.90;;;;;;5135438;27;19907;-75
2021/12/29 12:09:47;;;;;;;;;;;12.20;99.90;;;;;;5136227;27;19908;-74
2021/12/29 12:12:12;;;;;;;;;;;12.20;99.90;;;;;;5136238;27;19916;-74
2021/12/29 12:14:46;;;;;;;;;;;12.20;99.90;;;;;;5135433;27;19915;-74
2021/12/29 12:17:13;;;;;;;;;;;12.20;99.90;;;;;;5117444;27;19915;-74
2021/12/29 12:19:39;;;;;;;;;;;12.20;99.90;;;;;;5135690;27;20375;-76
2021/12/29 12:22:13;;;;;;;;;;;12.20;99.90;;;;;;5135759;27;19922;-74
2021/12/29 12:24:41;;;;;;;;;;;12.20;99.90;;;;;;5135591;27;20059;-75
2021/12/29 12:27:11;;;;;;;;;;;12.30;99.90;;;;;;5135904;27;19907;-75
2021/12/29 12:29:41;;;;;;;;;;;12.30;99.90;;;;;;5135501;27;19908;-75
2021/12/29 12:32:07;;;;;;;;;;;12.40;99.90;;;;;;5135443;27;19926;-75
2021/12/29 12:34:47;;;;;;;;;;;12.40;99.90;;;;;;5135194;27;20254;-75
2021/12/29 12:37:13;;;;;;;;;;;12.50;99.90;;;;;;5135687;27;19908;-75
2021/12/29 12:39:39;;;;;;;;;;;12.50;99.90;;;;;;5135377;27;19914;-76
2021/12/29 12:42:05;;;;;;;;;;;12.50;99.90;;;;;;5135002;27;19994;-75
2021/12/29 12:44:35;;;;;;;;;;;12.60;99.90;;;;;;5135399;27;19956;-75
2021/12/29 12:47:11;;;;;;;;;;;12.60;99.90;;;;;;5134537;27;19965;-75
2021/12/29 12:49:41;;;;;;;;;;;12.60;99.90;;;;;;5135680;27;19908;-75
2021/12/29 12:52:08;;;;;;;;;;;12.60;99.90;;;;;;5134916;27;19916;-76
2021/12/29 12:54:57;;;;;;;;;;;12.50;99.90;;;;;;5135154;27;19919;-75
2021/12/29 12:57:44;;;;;;;;;;;12.60;99.90;;;;;;5124007;27;19907;-75
2021/12/29 13:00:10;;;;;;;;;;;12.60;99.90;;;;;;5135365;27;19929;-74
2021/12/29 13:02:40;;;;;;;;;;;12.60;99.90;;;;;;5135111;27;20352;-75
2021/12/29 13:05:06;;;;;;;;;;;12.50;99.90;;;;;;5136691;27;19907;-75
2021/12/29 13:07:32;;;;;;;;;;;12.50;99.90;;;;;;5126151;27;20416;-75
2021/12/29 13:09:58;;;;;;;;;;;12.50;99.90;;;;;;5116445;27;19912;-75
2021/12/29 13:12:28;;;;;;;;;;;12.50;99.90;;;;;;5134960;27;19938;-75
2021/12/29 13:15:01;;;;;;;;;;;12.60;99.90;;;;;;5133974;27;19907;-74
2021/12/29 13:17:27;;;;;;;;;;;12.60;99.90;;;;;;5134895;27;19934;-75
2021/12/29 13:19:53;;;;;;;;;;;12.60;99.90;;;;;;5133486;27;19946;-75
2021/12/29 13:22:22;;;;;;;;;;;12.60;99.90;;;;;;5134486;27;19912;-75
2021/12/29 13:24:48;;;;;;;;;;;12.60;99.90;;;;;;5133776;27;19990;-76
2021/12/29 13:27:16;;;;;;;;;;;12.70;99.90;;;;;;5134517;27;20461;-75
2021/12/29 13:29:42;;;;;;;;;;;12.70;99.90;;;;;;5134369;27;19907;-75
2021/12/29 13:32:10;;;;;;;;;;;12.70;99.90;;;;;;5134176;27;19920;-75
2021/12/29 13:34:35;;;;;;;;;;;12.80;99.90;;;;;;5133041;27;19976;-75
2021/12/29 13:37:08;;;;;;;;;;;12.80;99.90;;;;;;5132497;27;19912;-75
2021/12/29 13:39:34;;;;;;;;;;;12.80;99.90;;;;;;5133384;27;20027;-75
2021/12/29 13:41:59;;;;;;;;;;;12.80;99.90;;;;;;5115920;27;19934;-76
2021/12/29 13:44:25;;;;;;;;;;;12.80;99.90;;;;;;5140383;27;20341;-75
2021/12/29 13:46:50;;;;;;;;;;;12.80;99.90;;;;;;5139339;27;20413;-75
2021/12/29 13:49:16;;;;;;;;;;;12.80;99.90;;;;;;5142511;27;19907;-75
2021/12/29 13:51:43;;;;;;;;;;;12.80;99.90;;;;;;5145271;27;20010;-75
2021/12/29 13:54:10;;;;;;;;;;;12.70;99.90;;;;;;5133839;27;19994;-74
2021/12/29 13:56:37;;;;;;;;;;;12.60;99.90;;;;;;5115707;27;19956;-75
2021/12/29 13:59:02;;;;;;;;;;;12.60;99.90;;;;;;5133004;27;19965;-76
2021/12/29 14:01:29;;;;;;;;;;;12.60;99.90;;;;;;5133217;27;19907;-76
2021/12/29 14:03:55;;;;;;;;;;;12.60;99.90;;;;;;5132626;27;20299;-77
2021/12/29 14:06:20;;;;;;;;;;;12.60;99.90;;;;;;5131866;27;19915;-75
2021/12/29 14:08:47;;;;;;;;;;;12.50;99.90;;;;;;5133715;27;19968;-76
2021/12/29 14:11:12;;;;;;;;;;;12.50;99.90;;;;;;5135315;27;20010;-75
2021/12/29 14:13:44;;;;;;;;;;;12.30;99.90;;;;;;5133553;27;20010;-75
2021/12/29 14:16:12;;;;;;;;;;;12.30;99.90;;;;;;5132966;27;19907;-76
2021/12/29 14:18:58;;;;;;;;;;;12.30;99.90;;;;;;5115210;27;20313;-75
2021/12/29 14:21:26;;;;;;;;;;;12.30;99.90;;;;;;5132213;27;19908;-75
2021/12/29 14:24:05;;;;;;;;;;;12.20;99.90;;;;;;5132175;27;19927;-76
2021/12/29 14:26:36;;;;;;;;;;;12.20;99.90;;;;;;5114536;27;19994;-76
2021/12/29 14:29:02;;;;;;;;;;;12.10;99.90;;;;;;5131984;27;19907;-76